createdAt,value
2022-11-01T00:01:22.035Z,167.43
2022-11-01T00:03:48.598Z,172.75
2022-11-01T00:06:15.123Z,178.32
2022-11-01T00:08:41.610Z,169.18
2022-11-01T00:11:12.073Z,164.77
2022-11-01T00:13:38.532Z,167.73
2022-11-01T00:16:05.393Z,166.93
2022-11-01T00:18:31.922Z,165.32
2022-11-01T00:20:58.418Z,170.02
2022-11-01T00:23:24.904Z,180.30
2022-11-01T00:25:51.418Z,174.18
2022-11-01T00:28:17.975Z,170.85
2022-11-01T00:30:44.608Z,170.80
2022-11-01T00:33:11.118Z,170.43
2022-11-01T00:35:37.609Z,168.88
2022-11-01T00:38:05.900Z,169.77
2022-11-01T00:40:32.977Z,167.48
2022-11-01T00:42:59.612Z,169.75
2022-11-01T00:45:26.120Z,171.27
2022-11-01T00:47:52.672Z,167.55
2022-11-01T00:50:19.165Z,171.88
2022-11-01T00:52:45.666Z,169.05
2022-11-01T00:55:12.148Z,174.35
2022-11-01T00:57:38.661Z,170.93
2022-11-01T01:00:05.966Z,173.15
2022-11-01T01:02:32.528Z,174.30
2022-11-01T01:04:59.062Z,169.55
2022-11-01T01:07:25.547Z,175.30
2022-11-01T01:09:52.025Z,185.15
2022-11-01T01:12:18.505Z,174.52
2022-11-01T01:14:45.000Z,176.40
2022-11-01T01:17:11.504Z,176.75
2022-11-01T01:19:38.017Z,181.60
2022-11-01T01:22:04.507Z,184.00
2022-11-01T01:24:32.372Z,181.98
2022-11-01T01:26:59.071Z,183.30
2022-11-01T01:29:26.255Z,181.73
2022-11-01T01:31:52.758Z,183.13
2022-11-01T01:34:19.436Z,182.93
2022-11-01T01:36:47.176Z,172.80
2022-11-01T01:39:13.836Z,180.48
2022-11-01T01:41:58.797Z,180.48
2022-11-01T01:47:13.796Z,170.90
2022-11-01T01:49:42.628Z,190.85
2022-11-01T01:52:10.123Z,200.15
2022-11-01T01:54:37.454Z,200.00
2022-11-01T01:57:04.821Z,190.48
2022-11-01T01:59:32.533Z,198.63
2022-11-01T02:01:59.300Z,189.80
2022-11-01T02:04:39.843Z,189.15
2022-11-01T02:07:07.172Z,189.93
2022-11-01T02:09:35.310Z,191.15
2022-11-01T02:12:02.764Z,184.02
2022-11-01T02:14:30.008Z,191.63
2022-11-01T02:17:49.499Z,191.65
2022-11-01T02:20:58.624Z,197.93
2022-11-01T02:23:51.505Z,193.02
2022-11-01T02:26:26.856Z,202.02
2022-11-01T02:29:44.729Z,202.15
2022-11-01T02:32:26.758Z,204.68
2022-11-01T02:35:01.396Z,207.98
2022-11-01T02:40:03.662Z,210.65
2022-11-01T02:42:35.789Z,225.35
2022-11-01T02:45:09.006Z,226.85
2022-11-01T02:47:37.891Z,217.38
2022-11-01T02:50:10.798Z,221.32
2022-11-01T02:52:41.089Z,220.57
2022-11-01T02:55:31.361Z,215.20
2022-11-01T02:58:02.345Z,217.57
2022-11-01T03:00:35.372Z,208.85
2022-11-01T03:03:16.729Z,212.95
2022-11-01T03:05:54.703Z,217.65
2022-11-01T03:08:25.888Z,215.95
2022-11-01T03:11:12.589Z,214.05
2022-11-01T03:14:05.120Z,215.32
2022-11-01T03:16:40.554Z,208.45
2022-11-01T03:19:29.156Z,204.95
2022-11-01T03:22:05.528Z,208.15
2022-11-01T03:24:38.194Z,217.43
2022-11-01T03:27:39.719Z,213.60
2022-11-01T03:30:09.589Z,188.32
2022-11-01T03:32:49.463Z,209.40
2022-11-01T03:35:20.121Z,208.55
2022-11-01T03:37:49.023Z,206.07
2022-11-01T03:40:17.840Z,206.55
2022-11-01T03:42:47.412Z,213.00
2022-11-01T03:45:16.894Z,214.98
2022-11-01T03:47:43.477Z,207.52
2022-11-01T03:50:16.077Z,208.68
2022-11-01T03:52:43.421Z,216.63
2022-11-01T03:55:19.711Z,218.07
2022-11-01T03:57:48.397Z,208.98
2022-11-01T04:00:17.442Z,220.13
2022-11-01T04:02:44.213Z,212.82
2022-11-01T04:05:12.192Z,207.40
2022-11-01T04:07:39.826Z,205.32
2022-11-01T04:10:07.219Z,199.40
2022-11-01T04:12:34.055Z,190.55
2022-11-01T04:15:19.131Z,188.65
2022-11-01T04:18:05.898Z,184.13
2022-11-01T04:20:33.025Z,187.13
2022-11-01T04:23:04.089Z,191.77
2022-11-01T04:25:32.051Z,187.25
2022-11-01T04:27:58.665Z,181.48
2022-11-01T04:30:29.679Z,180.15
2022-11-01T04:32:56.414Z,183.35
2022-11-01T04:35:23.689Z,186.20
2022-11-01T04:37:57.438Z,182.95
2022-11-01T04:40:24.225Z,188.00
2022-11-01T04:42:50.820Z,183.35
2022-11-01T04:45:17.404Z,180.23
2022-11-01T04:47:50.913Z,171.70
2022-11-01T04:50:21.080Z,163.02
2022-11-01T04:52:48.290Z,170.40
2022-11-01T04:55:14.906Z,168.95
2022-11-01T04:57:42.182Z,182.95
2022-11-01T05:00:11.637Z,181.50
2022-11-01T05:02:39.902Z,189.80
2022-11-01T05:05:08.491Z,184.02
2022-11-01T05:07:35.472Z,189.00
2022-11-01T05:10:02.803Z,186.95
2022-11-01T05:12:29.645Z,179.50
2022-11-01T05:14:56.998Z,200.98
2022-11-01T05:17:23.830Z,182.65
2022-11-01T05:19:50.656Z,170.45
2022-11-01T05:22:17.809Z,172.65
2022-11-01T05:24:44.418Z,166.15
2022-11-01T05:27:11.276Z,175.60
2022-11-01T05:29:37.833Z,166.10
2022-11-01T05:32:04.380Z,171.63
2022-11-01T05:34:30.910Z,168.57
2022-11-01T05:36:57.387Z,177.80
2022-11-01T05:39:23.894Z,172.90
2022-11-01T05:41:50.384Z,165.23
2022-11-01T05:44:16.879Z,173.05
2022-11-01T05:46:43.381Z,183.93
2022-11-01T05:49:09.840Z,176.50
2022-11-01T05:51:36.416Z,175.25
2022-11-01T05:54:02.917Z,185.23
2022-11-01T05:56:29.432Z,168.75
2022-11-01T05:58:55.900Z,182.98
2022-11-01T06:01:22.509Z,184.00
2022-11-01T06:03:50.472Z,175.20
2022-11-01T06:06:17.012Z,184.27
2022-11-01T06:08:43.518Z,184.50
2022-11-01T06:11:10.025Z,174.18
2022-11-01T06:13:36.546Z,189.63
2022-11-01T06:16:05.611Z,188.43
2022-11-01T06:18:32.542Z,196.15
2022-11-01T06:20:59.487Z,198.75
2022-11-01T06:23:26.056Z,189.70
2022-11-01T06:25:59.898Z,206.57
2022-11-01T06:28:26.514Z,197.85
2022-11-01T06:30:53.097Z,211.15
2022-11-01T06:33:19.906Z,208.35
2022-11-01T06:35:46.738Z,211.35
2022-11-01T06:38:13.418Z,211.80
2022-11-01T06:40:39.904Z,217.82
2022-11-01T06:43:06.668Z,221.60
2022-11-01T06:45:33.886Z,209.95
2022-11-01T06:48:00.945Z,225.02
2022-11-01T06:50:27.664Z,209.65
2022-11-01T06:52:58.604Z,205.27
2022-11-01T06:55:26.601Z,197.65
2022-11-01T06:57:57.673Z,198.40
2022-11-01T07:00:25.081Z,188.02
2022-11-01T07:02:59.258Z,182.88
2022-11-01T07:05:26.381Z,188.48
2022-11-01T07:07:53.630Z,198.88
2022-11-01T07:10:20.681Z,205.88
2022-11-01T07:12:47.189Z,213.43
2022-11-01T07:15:13.784Z,197.57
2022-11-01T07:17:40.378Z,214.43
2022-11-01T07:20:07.503Z,199.85
2022-11-01T07:22:34.597Z,213.77
2022-11-01T07:25:01.106Z,206.85
2022-11-01T07:27:27.602Z,197.48
2022-11-01T07:29:54.079Z,199.30
2022-11-01T07:32:20.561Z,199.27
2022-11-01T07:34:47.082Z,204.57
2022-11-01T07:37:13.714Z,209.32
2022-11-01T07:39:40.269Z,207.15
2022-11-01T07:42:06.741Z,212.05
2022-11-01T07:44:33.285Z,221.77
2022-11-01T07:46:59.750Z,225.40
2022-11-01T07:49:26.307Z,222.75
2022-11-01T07:51:52.794Z,214.20
2022-11-01T07:54:20.272Z,207.38
2022-11-01T07:56:47.852Z,210.48
2022-11-01T07:59:14.361Z,206.82
2022-11-01T08:01:41.044Z,193.10
2022-11-01T08:04:07.606Z,188.23
2022-11-01T08:06:34.174Z,187.55
2022-11-01T08:09:00.652Z,194.40
2022-11-01T08:11:28.345Z,201.15
2022-11-01T08:13:56.917Z,171.38
2022-11-01T08:16:27.289Z,176.88
2022-11-01T08:18:53.783Z,173.23
2022-11-01T08:21:20.314Z,168.68
2022-11-01T08:23:46.866Z,162.75
2022-11-01T08:26:13.477Z,153.40
2022-11-01T08:28:39.998Z,161.80
2022-11-01T08:31:08.992Z,168.55
2022-11-01T08:33:35.935Z,169.80
2022-11-01T08:36:02.581Z,164.25
2022-11-01T08:38:29.299Z,166.85
2022-11-01T08:40:56.008Z,154.48
2022-11-01T08:43:22.507Z,154.95
2022-11-01T08:45:49.237Z,135.32
2022-11-01T08:48:15.995Z,141.60
2022-11-01T08:50:43.793Z,151.45
2022-11-01T08:53:13.081Z,155.68
2022-11-01T08:55:40.570Z,172.40
2022-11-01T08:58:08.186Z,172.57
2022-11-01T09:00:35.388Z,169.05
2022-11-01T09:03:02.177Z,169.85
2022-11-01T09:05:31.199Z,167.25
2022-11-01T09:07:59.992Z,171.25
2022-11-01T09:10:27.078Z,172.70
2022-11-01T09:12:53.600Z,178.20
2022-11-01T09:15:20.237Z,177.85
2022-11-01T09:17:46.793Z,188.70
2022-11-01T09:20:15.143Z,179.07
2022-11-01T09:22:41.732Z,172.32
2022-11-01T09:25:08.628Z,161.55
2022-11-01T09:27:35.164Z,164.38
2022-11-01T09:30:01.984Z,164.10
2022-11-01T09:32:29.193Z,169.65
2022-11-01T09:34:55.697Z,174.82
2022-11-01T09:37:22.185Z,166.70
2022-11-01T09:39:48.664Z,158.43
2022-11-01T09:42:22.431Z,137.93
2022-11-01T09:44:53.175Z,135.27
2022-11-01T09:47:22.568Z,143.63
2022-11-01T09:49:58.946Z,139.73
2022-11-01T09:52:25.858Z,133.30
2022-11-01T09:54:52.532Z,148.05
2022-11-01T09:57:24.871Z,145.05
2022-11-01T10:00:04.390Z,142.95
2022-11-01T10:02:42.009Z,142.77
2022-11-01T10:05:32.908Z,135.07
2022-11-01T10:08:23.230Z,136.98
2022-11-01T10:11:14.071Z,138.95
2022-11-01T10:13:54.100Z,140.93
2022-11-01T10:16:35.456Z,133.50
2022-11-01T10:19:23.745Z,129.15
2022-11-01T10:21:53.224Z,131.25
2022-11-01T10:24:30.406Z,133.82
2022-11-01T10:27:07.440Z,131.80
2022-11-01T10:29:44.855Z,123.13
2022-11-01T10:32:23.618Z,123.10
2022-11-01T10:34:52.997Z,114.75
2022-11-01T10:37:34.485Z,116.50
2022-11-01T10:40:08.393Z,113.82
2022-11-01T10:42:37.017Z,114.65
2022-11-01T10:45:08.825Z,124.55
2022-11-01T10:47:35.478Z,127.85
2022-11-01T10:50:08.178Z,133.30
2022-11-01T10:52:55.590Z,128.23
2022-11-01T10:55:34.473Z,123.75
2022-11-01T10:58:06.627Z,127.35
2022-11-01T11:00:37.121Z,135.80
2022-11-01T11:03:21.339Z,123.65
2022-11-01T11:05:50.052Z,109.18
2022-11-01T11:08:19.309Z,108.53
2022-11-01T11:10:47.134Z,115.45
2022-11-01T11:13:16.891Z,134.50
2022-11-01T11:15:45.996Z,125.45
2022-11-01T11:18:31.301Z,129.07
2022-11-01T11:21:09.621Z,133.40
2022-11-01T11:23:43.985Z,132.00
2022-11-01T11:26:17.590Z,130.13
2022-11-01T11:28:54.453Z,111.80
2022-11-01T11:31:20.869Z,119.40
2022-11-01T11:33:54.699Z,123.35
2022-11-01T11:36:32.133Z,123.22
2022-11-01T11:39:00.208Z,136.43
2022-11-01T11:41:36.903Z,137.02
2022-11-01T11:44:03.821Z,119.05
2022-11-01T11:46:30.382Z,113.65
2022-11-01T11:49:01.161Z,121.63
2022-11-01T11:51:30.481Z,118.30
2022-11-01T11:54:09.207Z,125.40
2022-11-01T11:56:35.832Z,133.20
2022-11-01T11:59:08.689Z,134.65
2022-11-01T12:01:35.799Z,130.95
2022-11-01T12:04:09.226Z,121.57
2022-11-01T12:06:41.570Z,131.88
2022-11-01T12:09:46.795Z,123.55
2022-11-01T12:12:27.497Z,112.55
2022-11-01T12:14:55.704Z,127.22
2022-11-01T12:17:35.016Z,144.18
2022-11-01T12:20:02.571Z,146.35
2022-11-01T12:22:37.473Z,148.63
2022-11-01T12:25:13.234Z,155.25
2022-11-01T12:27:50.317Z,151.25
2022-11-01T12:30:23.464Z,149.18
2022-11-01T12:32:53.796Z,144.85
2022-11-01T12:35:44.377Z,145.57
2022-11-01T12:38:32.431Z,145.52
2022-11-01T12:41:09.621Z,148.70
2022-11-01T12:44:01.332Z,149.50
2022-11-01T12:46:38.473Z,181.77
2022-11-01T12:49:26.610Z,190.45
2022-11-01T12:51:58.750Z,186.82
2022-11-01T12:54:30.438Z,189.60
2022-11-01T12:56:57.046Z,186.80
2022-11-01T12:59:33.498Z,186.85
2022-11-01T13:02:30.848Z,183.90
2022-11-01T13:05:11.788Z,174.57
2022-11-01T13:07:56.413Z,165.32
2022-11-01T13:10:29.392Z,175.88
2022-11-01T13:13:06.166Z,171.70
2022-11-01T13:15:37.067Z,165.93
2022-11-01T13:18:39.454Z,162.98
2022-11-01T13:21:13.360Z,158.30
2022-11-01T13:23:49.317Z,166.80
2022-11-01T13:26:22.035Z,164.02
2022-11-01T13:29:06.610Z,164.45
2022-11-01T13:31:48.351Z,159.23
2022-11-01T13:34:39.306Z,159.05
2022-11-01T13:37:11.962Z,152.55
2022-11-01T13:40:06.186Z,173.88
2022-11-01T13:42:46.271Z,160.13
2022-11-01T13:45:12.707Z,161.90
2022-11-01T13:48:00.724Z,163.00
2022-11-01T13:50:36.304Z,156.63
2022-11-01T13:53:23.731Z,151.05
2022-11-01T13:56:06.619Z,140.23
2022-11-01T13:58:33.426Z,125.65
2022-11-01T14:01:46.315Z,111.90
2022-11-01T14:04:21.806Z,106.97
2022-11-01T14:07:10.208Z,113.95
2022-11-01T14:09:50.575Z,110.70
2022-11-01T14:12:43.421Z,109.32
2022-11-01T14:15:16.292Z,111.22
2022-11-01T14:17:57.986Z,112.15
2022-11-01T14:20:36.613Z,102.82
2022-11-01T14:23:33.650Z,102.93
2022-11-01T14:26:18.413Z,102.65
2022-11-01T14:28:46.128Z,104.60
2022-11-01T14:31:18.166Z,109.28
2022-11-01T14:33:49.240Z,106.00
2022-11-01T14:36:19.582Z,111.13
2022-11-01T14:38:57.387Z,118.10
2022-11-01T14:41:27.333Z,101.50
2022-11-01T14:46:39.098Z,97.68
2022-11-01T14:49:40.096Z,94.63
2022-11-01T14:52:19.117Z,97.97
2022-11-01T14:55:04.085Z,108.38
2022-11-01T14:59:59.368Z,107.72
2022-11-01T15:02:28.208Z,120.07
2022-11-01T15:05:00.045Z,121.03
2022-11-01T15:07:31.298Z,121.97
2022-11-01T15:10:07.823Z,126.65
2022-11-01T15:12:47.422Z,120.50
2022-11-01T15:15:19.145Z,121.55
2022-11-01T15:18:05.051Z,124.88
2022-11-01T15:20:42.244Z,119.95
2022-11-01T15:23:15.193Z,128.35
2022-11-01T15:25:46.797Z,123.53
2022-11-01T15:28:31.180Z,127.22
2022-11-01T15:31:01.355Z,131.77
2022-11-01T15:33:32.332Z,137.70
2022-11-01T15:36:18.646Z,135.77
2022-11-01T15:39:21.069Z,130.75
2022-11-01T15:41:48.523Z,131.27
2022-11-01T15:44:23.981Z,142.95
2022-11-01T15:46:53.433Z,142.95
2022-11-01T15:49:24.946Z,138.38
2022-11-01T15:52:13.980Z,142.07
2022-11-01T15:54:47.903Z,138.07
2022-11-01T15:57:31.222Z,143.55
2022-11-01T16:00:29.818Z,139.25
2022-11-01T16:03:07.498Z,140.43
2022-11-01T16:05:44.845Z,135.73
2022-11-01T16:08:22.606Z,138.65
2022-11-01T16:10:49.749Z,140.13
2022-11-01T16:13:19.106Z,140.50
2022-11-01T16:16:08.710Z,140.07
2022-11-01T16:18:40.468Z,132.35
2022-11-01T16:21:28.859Z,137.25
2022-11-01T16:24:09.270Z,138.30
2022-11-01T16:27:00.097Z,140.77
2022-11-01T16:29:39.744Z,142.98
2022-11-01T16:32:10.084Z,141.00
2022-11-01T16:34:36.913Z,139.30
2022-11-01T16:37:14.358Z,146.77
2022-11-01T16:39:42.049Z,145.95
2022-11-01T16:42:09.575Z,148.85
2022-11-01T16:44:36.112Z,150.07
2022-11-01T16:47:02.619Z,141.55
2022-11-01T16:49:29.560Z,134.23
2022-11-01T16:51:58.991Z,138.13
2022-11-01T16:54:25.887Z,142.45
2022-11-01T16:56:54.671Z,143.60
2022-11-01T16:59:26.602Z,140.27
2022-11-01T17:01:55.684Z,142.38
2022-11-01T17:04:26.770Z,152.55
2022-11-01T17:06:54.509Z,147.00
2022-11-01T17:09:25.476Z,145.05
2022-11-01T17:11:53.880Z,142.88
2022-11-01T17:14:21.732Z,149.35
2022-11-01T17:16:50.410Z,150.98
2022-11-01T17:19:25.330Z,149.80
2022-11-01T17:21:52.785Z,149.35
2022-11-01T17:24:22.786Z,151.15
2022-11-01T17:26:51.693Z,144.93
2022-11-01T17:29:18.446Z,147.60
2022-11-01T17:31:45.013Z,140.40
2022-11-01T17:34:11.557Z,140.50
2022-11-01T17:36:41.228Z,140.55
2022-11-01T17:39:10.752Z,135.73
2022-11-01T17:41:37.722Z,138.68
2022-11-01T17:44:04.265Z,139.38
2022-11-01T17:46:31.037Z,134.77
2022-11-01T17:48:57.588Z,139.13
2022-11-01T17:51:24.280Z,131.93
2022-11-01T17:53:55.187Z,131.00
2022-11-01T17:56:23.996Z,130.27
2022-11-01T17:58:53.785Z,129.68
2022-11-01T18:01:21.638Z,128.20
2022-11-01T18:03:48.874Z,129.95
2022-11-01T18:06:15.428Z,131.48
2022-11-01T18:08:50.845Z,132.52
2022-11-01T18:11:29.792Z,132.13
2022-11-01T18:14:16.921Z,126.55
2022-11-01T18:17:00.297Z,132.35
2022-11-01T18:19:39.768Z,129.15
2022-11-01T18:22:30.376Z,124.45
2022-11-01T18:25:03.534Z,128.02
2022-11-01T18:27:38.889Z,136.00
2022-11-01T18:30:17.622Z,142.75
2022-11-01T18:33:03.351Z,141.50
2022-11-01T18:35:48.276Z,129.90
2022-11-01T18:41:02.441Z,123.03
2022-11-01T18:43:32.822Z,137.52
2022-11-01T18:46:23.967Z,140.00
2022-11-01T18:48:48.917Z,136.95
2022-11-01T18:51:26.559Z,139.80
2022-11-01T18:54:01.389Z,135.13
2022-11-01T18:56:27.863Z,139.15
2022-11-01T18:58:55.299Z,137.23
2022-11-01T19:01:33.791Z,146.52
2022-11-01T19:04:24.964Z,142.88
2022-11-01T19:06:57.010Z,135.60
2022-11-01T19:09:25.969Z,136.90
2022-11-01T19:12:00.700Z,139.85
2022-11-01T19:14:27.509Z,145.93
2022-11-01T19:16:54.416Z,139.77
2022-11-01T19:19:21.345Z,137.65
2022-11-01T19:21:48.090Z,134.52
2022-11-01T19:24:32.097Z,133.10
2022-11-01T19:26:59.730Z,128.67
2022-11-01T19:29:31.598Z,132.80
2022-11-01T19:32:01.907Z,139.10
2022-11-01T19:34:33.801Z,130.48
2022-11-01T19:37:06.298Z,129.82
2022-11-01T19:39:37.513Z,125.57
2022-11-01T19:42:13.882Z,129.18
2022-11-01T19:44:40.425Z,125.90
2022-11-01T19:47:31.747Z,124.07
2022-11-01T19:49:58.255Z,120.10
2022-11-01T19:52:30.025Z,116.78
2022-11-01T19:54:56.761Z,118.80
2022-11-01T19:57:34.726Z,115.72
2022-11-01T20:00:21.645Z,114.72
2022-11-01T20:02:51.370Z,115.90
2022-11-01T20:05:34.221Z,116.72
2022-11-01T20:08:23.467Z,115.30
2022-11-01T20:10:50.062Z,115.43
2022-11-01T20:13:16.649Z,118.97
2022-11-01T20:15:43.229Z,117.03
2022-11-01T20:18:10.082Z,125.28
2022-11-01T20:20:37.171Z,130.30
2022-11-01T20:23:25.204Z,126.95
2022-11-01T20:25:50.196Z,128.63
2022-11-01T20:28:16.750Z,133.60
2022-11-01T20:30:43.252Z,128.30
2022-11-01T20:33:09.785Z,124.03
2022-11-01T20:35:36.333Z,127.78
2022-11-01T20:38:02.825Z,125.28
2022-11-01T20:40:29.342Z,131.73
2022-11-01T20:42:56.844Z,130.93
2022-11-01T20:45:23.388Z,132.15
2022-11-01T20:47:51.182Z,126.85
2022-11-01T20:50:18.795Z,131.73
2022-11-01T20:52:45.371Z,145.00
2022-11-01T20:55:12.844Z,147.10
2022-11-01T20:57:39.406Z,139.70
2022-11-01T21:00:09.811Z,139.43
2022-11-01T21:02:36.729Z,145.10
2022-11-01T21:05:16.841Z,138.02
2022-11-01T21:07:47.741Z,136.40
2022-11-01T21:10:24.162Z,131.98
2022-11-01T21:12:50.849Z,125.05
2022-11-01T21:15:31.837Z,127.15
2022-11-01T21:18:07.549Z,125.22
2022-11-01T21:20:39.480Z,120.05
2022-11-01T21:23:32.323Z,121.13
2022-11-01T21:26:10.595Z,109.22
2022-11-01T21:28:42.550Z,109.65
2022-11-01T21:31:15.093Z,110.10
2022-11-01T21:33:49.011Z,104.05
2022-11-01T21:36:18.496Z,92.63
2022-11-01T21:38:52.247Z,100.57
2022-11-01T21:41:21.502Z,88.57
2022-11-01T21:43:47.992Z,88.88
2022-11-01T21:46:19.524Z,87.78
2022-11-01T21:48:46.317Z,79.10
2022-11-01T21:51:12.841Z,82.88
2022-11-01T21:53:39.319Z,86.40
2022-11-01T21:56:06.306Z,82.57
2022-11-01T21:58:32.914Z,82.80
2022-11-01T22:00:59.742Z,81.50
2022-11-01T22:03:26.324Z,72.90
2022-11-01T22:05:52.849Z,71.50
2022-11-01T22:08:19.358Z,64.90
2022-11-01T22:10:45.841Z,71.40
2022-11-01T22:13:12.834Z,74.35
2022-11-01T22:15:39.867Z,72.30
2022-11-01T22:18:06.369Z,73.45
2022-11-01T22:20:32.912Z,74.55
2022-11-01T22:22:59.496Z,73.63
2022-11-01T22:25:25.982Z,72.60
2022-11-01T22:27:52.483Z,70.55
2022-11-01T22:30:18.962Z,70.32
2022-11-01T22:32:45.462Z,74.00
2022-11-01T22:35:12.013Z,69.15
2022-11-01T22:37:39.381Z,68.95
2022-11-01T22:40:12.908Z,70.82
2022-11-01T22:42:40.482Z,73.70
2022-11-01T22:45:15.145Z,71.75
2022-11-01T22:47:42.881Z,71.88
2022-11-01T22:50:14.154Z,75.43
2022-11-01T22:52:43.858Z,75.88
2022-11-01T22:55:10.361Z,75.20
2022-11-01T22:57:46.777Z,69.60
2022-11-01T23:00:33.646Z,75.40
2022-11-01T23:03:02.442Z,73.13
2022-11-01T23:05:29.301Z,73.88
2022-11-01T23:08:00.784Z,75.43
2022-11-01T23:10:33.870Z,68.82
2022-11-01T23:13:31.180Z,72.75
2022-11-01T23:16:09.776Z,69.80
2022-11-01T23:18:43.469Z,68.20
2022-11-01T23:21:10.306Z,68.03
2022-11-01T23:23:40.649Z,66.78
2022-11-01T23:26:08.010Z,65.88
2022-11-01T23:28:35.531Z,66.38
2022-11-01T23:31:05.497Z,62.65
2022-11-01T23:33:42.228Z,58.78
2022-11-01T23:36:24.511Z,61.33
2022-11-01T23:39:03.278Z,54.60
2022-11-01T23:41:42.466Z,54.95
2022-11-01T23:44:22.449Z,49.35
2022-11-01T23:46:48.990Z,47.35
2022-11-01T23:49:19.015Z,45.88
2022-11-01T23:51:45.769Z,48.55
2022-11-01T23:54:44.869Z,44.45
2022-11-01T23:57:19.682Z,41.58
2022-11-01T23:59:47.908Z,40.75
